createdAt,value
2023-03-29T17:35:02.823Z,51.42
2023-03-29T17:36:53.449Z,51.37
2023-03-29T17:38:48.221Z,51.53
2023-03-29T17:40:38.856Z,51.88
2023-03-29T17:42:29.734Z,52.28
2023-03-29T17:44:20.406Z,52.26
2023-03-29T17:46:11.011Z,52.43
2023-03-29T17:48:02.818Z,52.43
2023-03-29T17:49:55.211Z,52.74
2023-03-29T17:51:45.610Z,52.74
2023-03-29T17:53:35.656Z,53.00
2023-03-29T17:55:26.728Z,52.96
2023-03-29T17:57:17.285Z,53.03
2023-03-29T17:59:07.524Z,53.42
2023-03-29T18:00:57.669Z,53.31
2023-03-29T18:02:48.232Z,53.58
2023-03-29T18:04:38.766Z,54.03
2023-03-29T18:06:28.952Z,54.10
2023-03-29T18:08:18.913Z,54.16
2023-03-29T18:10:09.280Z,54.39
2023-03-29T18:11:59.619Z,54.60
2023-03-29T18:13:51.111Z,54.55
2023-03-29T18:15:41.831Z,54.71
2023-03-29T18:17:33.039Z,54.76
2023-03-29T18:19:23.310Z,54.82
2023-03-29T18:21:15.433Z,55.07
2023-03-29T18:23:05.887Z,55.14
2023-03-29T18:24:56.086Z,55.33
2023-03-29T18:26:45.953Z,55.29
2023-03-29T18:28:36.885Z,55.38
2023-03-29T18:30:27.160Z,55.49
2023-03-29T18:32:17.080Z,55.54
2023-03-29T18:34:07.374Z,55.69
2023-03-29T18:35:57.499Z,55.77
2023-03-29T18:37:47.729Z,55.71
2023-03-29T18:39:38.187Z,55.88
2023-03-29T18:41:28.744Z,56.10
2023-03-29T18:43:19.242Z,56.20
2023-03-29T18:45:10.113Z,56.21
2023-03-29T18:47:00.454Z,56.28
2023-03-29T18:48:50.641Z,56.48
2023-03-29T18:50:44.311Z,56.64
2023-03-29T18:52:34.658Z,56.70
2023-03-29T18:54:24.686Z,56.70
2023-03-29T18:56:15.049Z,56.67
2023-03-29T18:58:05.255Z,56.64
2023-03-29T18:59:55.339Z,56.69
2023-03-29T19:01:45.792Z,56.60
2023-03-29T19:03:37.577Z,56.69
2023-03-29T19:05:28.197Z,56.81
2023-03-29T19:07:19.926Z,56.81
2023-03-29T19:09:10.520Z,56.86
2023-03-29T19:11:03.073Z,57.01
2023-03-29T19:12:53.161Z,57.26
2023-03-29T19:14:43.569Z,57.34
2023-03-29T19:16:33.462Z,57.58
2023-03-29T19:18:25.809Z,57.69
2023-03-29T19:20:16.252Z,57.78
2023-03-29T19:22:06.907Z,57.45
2023-03-29T19:23:59.344Z,57.94
2023-03-29T19:25:56.960Z,57.78
2023-03-29T19:27:47.140Z,58.27
2023-03-29T19:29:37.668Z,58.21
2023-03-29T19:31:27.824Z,58.29
2023-03-29T19:33:19.219Z,58.30
2023-03-29T19:35:12.069Z,58.68
2023-03-29T19:37:02.533Z,58.61
2023-03-29T19:38:53.474Z,58.78
2023-03-29T19:40:45.000Z,58.87
2023-03-29T19:42:35.619Z,59.19
2023-03-29T19:44:27.436Z,59.49
2023-03-29T19:46:17.976Z,59.43
2023-03-29T19:50:03.954Z,59.70
2023-03-29T19:51:56.672Z,59.72
2023-03-29T19:53:47.062Z,59.97
2023-03-29T19:55:38.835Z,60.12
2023-03-29T19:57:30.154Z,60.07
2023-03-29T19:59:20.464Z,60.34
2023-03-29T20:01:10.238Z,60.35
2023-03-29T20:03:01.483Z,60.48
2023-03-29T20:04:52.261Z,60.48
2023-03-29T20:06:42.525Z,60.60
2023-03-29T20:08:35.167Z,60.65
2023-03-29T20:10:26.371Z,60.80
2023-03-29T20:12:16.792Z,60.87
2023-03-29T20:14:07.745Z,60.90
2023-03-29T20:15:58.255Z,60.97
2023-03-29T20:17:48.260Z,61.19
2023-03-29T20:19:43.316Z,61.13
2023-03-29T20:21:33.664Z,60.97
2023-03-29T20:23:23.679Z,61.24
2023-03-29T20:25:13.725Z,61.17
2023-03-29T20:27:04.019Z,61.25
2023-03-29T20:28:54.059Z,61.27
2023-03-29T20:30:44.063Z,61.32
2023-03-29T20:32:34.061Z,61.56
2023-03-29T20:34:24.827Z,61.89
2023-03-29T20:36:22.291Z,61.84
2023-03-29T20:38:13.106Z,61.75
2023-03-29T20:40:04.730Z,61.81
2023-03-29T20:41:54.997Z,61.95
2023-03-29T20:43:45.643Z,61.94
2023-03-29T20:45:49.783Z,61.97
2023-03-29T20:47:49.448Z,62.22
2023-03-29T20:49:39.358Z,62.37
2023-03-29T20:51:32.087Z,62.52
2023-03-29T20:53:22.061Z,62.77
2023-03-29T20:55:12.341Z,62.72
2023-03-29T20:57:03.435Z,63.05
2023-03-29T20:58:55.005Z,63.31
2023-03-29T21:00:46.136Z,63.06
2023-03-29T21:02:36.114Z,63.28
2023-03-29T21:04:27.262Z,63.26
2023-03-29T21:06:18.619Z,63.60
2023-03-29T21:08:08.623Z,63.53
2023-03-29T21:10:00.376Z,63.50
2023-03-29T21:11:51.880Z,63.30
2023-03-29T21:13:42.782Z,63.52
2023-03-29T21:15:33.044Z,63.57
2023-03-29T21:17:23.016Z,63.37
2023-03-29T21:19:14.772Z,63.33
2023-03-29T21:21:07.151Z,63.45
2023-03-29T21:22:57.395Z,63.34
2023-03-29T21:24:47.278Z,63.54
2023-03-29T21:26:37.332Z,63.48
2023-03-29T21:28:27.791Z,63.52
2023-03-29T21:30:17.732Z,63.39
2023-03-29T21:32:07.630Z,63.63
2023-03-29T21:33:57.620Z,63.91
2023-03-29T21:35:48.538Z,64.35
2023-03-29T21:37:38.843Z,64.44
2023-03-29T21:39:29.464Z,64.55
2023-03-29T21:41:19.664Z,64.80
2023-03-29T21:43:09.521Z,65.19
2023-03-29T21:44:59.306Z,65.16
2023-03-29T21:48:30.747Z,65.33
2023-03-29T21:50:22.358Z,65.41
2023-03-29T21:52:14.078Z,65.48
2023-03-29T21:54:05.369Z,65.42
2023-03-29T21:55:56.965Z,65.56
2023-03-29T21:57:48.924Z,65.46
2023-03-29T21:59:40.357Z,65.68
2023-03-29T22:01:31.594Z,65.66
2023-03-29T22:03:23.429Z,65.73
2023-03-29T22:05:16.248Z,65.91
2023-03-29T22:07:08.395Z,66.04
2023-03-29T22:09:00.841Z,66.21
2023-03-29T22:10:56.800Z,66.31
2023-03-29T22:12:48.275Z,66.22
2023-03-29T22:14:39.619Z,66.28
2023-03-29T22:16:31.386Z,66.24
2023-03-29T22:18:23.975Z,66.24
2023-03-29T22:20:15.676Z,66.07
2023-03-29T22:22:13.992Z,66.27
2023-03-29T22:24:06.080Z,66.17
2023-03-29T22:25:57.963Z,66.18
2023-03-29T22:27:49.846Z,66.24
2023-03-29T22:29:41.094Z,66.34
2023-03-29T22:31:32.913Z,66.34
2023-03-29T22:33:24.602Z,66.25
2023-03-29T22:35:16.002Z,66.39
2023-03-29T22:37:07.515Z,66.38
2023-03-29T22:38:59.525Z,66.42
2023-03-29T22:40:50.946Z,66.22
2023-03-29T22:42:42.574Z,66.28
2023-03-29T22:44:34.043Z,66.33
2023-03-29T22:46:26.512Z,66.44
2023-03-29T22:48:17.619Z,66.34
2023-03-29T22:50:09.441Z,66.30
2023-03-29T22:52:01.525Z,66.20
2023-03-29T22:55:00.605Z,66.14
2023-03-29T22:56:55.905Z,66.15
2023-03-29T22:58:47.580Z,66.22
2023-03-29T23:00:39.079Z,66.35
2023-03-29T23:02:30.376Z,66.15
2023-03-29T23:04:22.322Z,66.29
2023-03-29T23:06:13.751Z,66.27
2023-03-29T23:08:06.901Z,66.41
2023-03-29T23:10:15.800Z,66.37
2023-03-29T23:12:07.272Z,66.38
2023-03-29T23:13:59.232Z,66.48
2023-03-29T23:15:52.811Z,66.54
2023-03-29T23:17:44.286Z,66.40
2023-03-29T23:19:36.719Z,66.48
2023-03-29T23:21:28.701Z,66.62
2023-03-29T23:23:21.058Z,66.68
2023-03-29T23:25:13.365Z,66.67
2023-03-29T23:27:05.635Z,66.78
2023-03-29T23:28:57.618Z,66.81
2023-03-29T23:30:58.008Z,66.76
2023-03-29T23:32:50.248Z,66.58
2023-03-29T23:34:42.266Z,66.67
2023-03-29T23:36:34.239Z,66.81
2023-03-29T23:38:26.411Z,66.70
2023-03-29T23:40:18.115Z,66.62
2023-03-29T23:42:09.493Z,66.69
2023-03-29T23:44:01.324Z,66.59
2023-03-29T23:46:01.124Z,66.59
2023-03-29T23:47:53.382Z,66.78
2023-03-29T23:49:45.492Z,66.43
2023-03-29T23:51:39.237Z,66.64
2023-03-29T23:53:31.645Z,66.76
2023-03-29T23:55:23.767Z,66.83
2023-03-29T23:57:15.419Z,66.71
2023-03-29T23:59:07.312Z,66.75
